Latest Weather Observations for Barrow Island

IDW60801

Issued at 10:34 am WST Thursday 23 February 2017 (issued every 30 minutes, with the page automatically refreshed every 10 minutes)

About weather observations | Map of weather stations | Latest weather observations for WA | Other Formats
Station Details ID: 005094 Name: BARROW ISLAND AIRPORT Lat: -20.87 Lon: 115.41 Height: 6.4 m
Data from the previous 72 hours. | See also: Recent months at Barrow Island
Date/Time
WST
Temp
°C
App
Temp
°C
Dew
Point
°C
Rel
Hum
%
Delta-T
°C
Wind Press
QNH
hPa
Press
MSL
hPa
Rain since
9am
mm
Dir  Spd
km/h
Gust
km/h
Spd
kts
Gust
kts
23/10:30am 32.1 35.6 25.4 67 4.8 ENE 17 20 9 11 1012.2 - 0.0
23/10:00am 32.3 36.2 25.4 67 4.9 E 15 19 8 10 1012.3 - 0.0
23/09:30am 32.0 35.9 26.1 71 4.2 SE 17 20 9 11 1012.3 - 0.0
23/09:00am 31.7 35.4 25.8 71 4.2 S 17 20 9 11 1012.0 1012.0 0.0
23/08:30am 31.3 34.3 25.2 70 4.3 S 19 20 10 11 1011.9 - 0.0
23/08:00am 30.7 32.5 23.6 66 4.9 S 20 22 11 12 1011.7 - 0.0
23/07:30am 30.2 30.2 21.6 60 5.8 SSE 24 26 13 14 1011.5 - 0.0
23/07:00am 29.6 28.7 19.9 56 6.4 SSE 24 28 13 15 1011.1 - 0.0
23/06:30am 29.4 27.5 18.5 52 7.0 S 26 30 14 16 1010.8 - 0.0
23/06:00am 29.5 27.5 18.3 51 7.2 S 26 32 14 17 1010.7 1010.7 0.0
23/05:30am 29.4 28.0 19.7 56 6.3 S 26 30 14 16 1010.3 - 0.0
23/05:00am 29.7 27.7 19.1 53 6.9 S 28 32 15 17 1010.4 - 0.0
23/04:30am 30.1 26.5 17.2 46 8.2 S 32 35 17 19 1010.3 - 0.0
23/04:00am 30.4 26.6 16.8 44 8.6 S 32 35 17 19 1010.3 - 0.0
23/03:30am 30.3 28.6 20.5 55 6.5 S 30 33 16 18 1010.0 - 0.0
23/03:00am 30.3 28.3 19.9 53 6.8 S 30 35 16 19 1010.0 1010.0 0.0
23/02:30am 30.7 28.7 20.0 52 7.1 S 30 33 16 18 1010.2 - 0.0
23/02:00am 30.6 29.5 21.1 57 6.4 S 28 32 15 17 1010.3 - 0.0
23/01:30am 31.0 29.6 21.2 56 6.6 S 30 35 16 19 1010.6 - 0.0
23/01:00am 31.1 29.3 20.4 53 7.1 S 30 33 16 18 1010.8 - 0.0
23/12:30am 31.4 29.4 20.7 53 7.1 S 32 37 17 20 1010.9 - 0.0
23/12:00am 31.3 30.1 22.3 58 6.1 SSW 32 39 17 21 1011.0 1011.0 0.0
 
Date/Time
WST
Temp
°C
App
Temp
°C
Dew
Point
°C
Rel
Hum
%
Delta-T
°C
Wind Press
QNH
hPa
Press
MSL
hPa
Rain since
9am
mm
Dir  Spd
km/h
Gust
km/h
Spd
kts
Gust
kts
22/11:30pm 31.1 31.7 24.2 66 4.8 SSW 28 33 15 18 1011.4 - 0.0
22/11:00pm 30.8 31.0 24.7 70 4.3 SSW 32 37 17 20 1011.5 - 0.0
22/10:30pm 30.7 31.1 24.4 69 4.4 SW 30 35 16 19 1011.6 - 0.0
22/10:00pm 30.5 30.2 23.9 68 4.6 SW 32 37 17 20 1011.4 - 0.0
22/09:30pm 30.3 31.4 23.7 68 4.6 WSW 24 30 13 16 1011.3 - 0.0
22/09:00pm 30.3 31.2 22.7 64 5.2 WSW 22 32 12 17 1011.2 1011.2 0.0
22/08:30pm 30.3 31.2 22.7 64 5.2 WSW 22 28 12 15 1011.0 - 0.0
22/08:00pm 30.6 30.8 22.7 62 5.4 WSW 26 35 14 19 1010.6 - 0.0
22/07:30pm 30.7 30.9 23.4 65 5.0 WSW 28 35 15 19 1010.0 - 0.0
22/07:00pm 31.0 30.6 23.1 63 5.4 WSW 30 39 16 21 1009.6 - 0.0
22/06:30pm 31.6 31.0 22.6 59 6.2 WSW 30 39 16 21 1009.4 - 0.0
22/06:00pm 32.4 31.5 22.8 57 6.6 WSW 32 39 17 21 1009.1 1009.1 0.0
22/05:30pm 33.0 31.9 22.4 53 7.3 SW 32 37 17 20 1009.1 - 0.0
22/05:00pm 33.9 32.9 21.3 47 8.5 WSW 28 33 15 18 1008.8 - 0.0
22/04:30pm 34.1 33.2 21.5 47 8.5 WSW 28 33 15 18 1008.9 - 0.0
22/04:00pm 35.2 33.7 20.3 41 10.0 SW 28 32 15 17 1008.9 - 0.0
22/03:30pm 35.2 35.1 22.9 49 8.5 SW 28 32 15 17 1009.0 - 0.0
22/03:00pm 34.8 35.8 22.8 49 8.3 SSW 22 24 12 13 1009.3 1009.3 0.0
22/02:30pm 34.6 36.2 23.3 52 7.9 SSW 20 24 11 13 1009.5 - 0.0
22/02:00pm 34.6 36.1 23.0 51 8.0 SSW 20 24 11 13 1009.8 - 0.0
22/01:30pm 34.2 36.6 24.2 56 7.0 SSW 19 22 10 12 1010.0 - 0.0
22/01:00pm 33.8 35.9 23.8 56 7.0 SSW 19 24 10 13 1010.4 - 0.0
22/12:30pm 34.1 35.6 23.1 52 7.6 S 20 22 11 12 1010.7 - 0.0
22/12:00pm 33.7 35.4 23.1 54 7.3 S 19 22 10 12 1011.0 1011.0 0.0
22/11:30am 33.8 35.6 23.5 55 7.2 S 20 22 11 12 1011.2 - 0.0
22/11:00am 33.2 34.6 22.9 54 7.1 S 20 22 11 12 1011.4 - 0.0
22/10:30am 33.3 35.3 23.9 58 6.6 S 20 24 11 13 1011.7 - 0.0
22/10:00am 32.4 33.4 22.8 57 6.6 S 22 26 12 14 1011.9 - 0.0
22/09:30am 32.1 32.9 23.1 59 6.2 S 24 28 13 15 1011.9 - 0.0
22/09:00am 31.8 32.4 22.8 59 6.2 SSE 24 28 13 15 1011.9 1011.9 0.0
22/08:30am 31.4 30.9 22.1 57 6.3 SSE 28 32 15 17 1011.8 - 0.0
22/08:00am 31.0 29.5 21.8 58 6.2 S 32 35 17 19 1011.5 - 0.0
22/07:30am 30.7 29.3 22.0 59 5.9 S 32 37 17 20 1011.2 - 0.0
22/07:00am 30.2 28.9 22.1 62 5.5 S 32 37 17 20 1011.0 - 0.0
22/06:30am 30.0 29.1 22.9 65 4.9 S 32 37 17 20 1010.9 - 0.0
22/06:00am 30.0 29.1 23.2 67 4.7 S 33 39 18 21 1010.6 1010.6 0.0
22/05:30am 30.2 28.3 22.1 62 5.5 S 35 41 19 22 1010.1 - 0.0
22/05:00am 30.3 28.8 22.7 64 5.2 S 35 41 19 22 1009.9 - 0.0
22/04:30am 30.3 28.9 23.0 65 5.0 S 35 41 19 22 1009.7 - 0.0
22/04:00am 30.4 29.0 23.6 67 4.7 S 37 43 20 23 1009.6 - 0.0
22/03:30am 30.6 28.8 23.0 64 5.2 S 37 43 20 23 1009.4 - 0.0
22/03:00am 30.7 29.3 23.6 66 4.9 S 37 43 20 23 1009.3 1009.3 0.0
22/02:30am 30.9 29.0 23.5 64 5.1 S 39 44 21 24 1009.3 - 0.0
22/02:00am 31.2 28.7 23.0 61 5.6 S 41 46 22 25 1009.4 - 0.0
22/01:30am 31.4 29.0 23.2 61 5.6 S 41 46 22 25 1009.5 - 0.0
22/01:00am 31.5 29.9 23.9 64 5.3 S 39 46 21 25 1009.6 - 0.0
22/12:30am 31.6 30.0 23.9 63 5.4 SSW 39 44 21 24 1009.5 - 0.0
22/12:00am 31.7 31.4 24.8 67 4.9 SSW 35 43 19 23 1009.7 1009.7 0.0
 
Date/Time
WST
Temp
°C
App
Temp
°C
Dew
Point
°C
Rel
Hum
%
Delta-T
°C
Wind Press
QNH
hPa
Press
MSL
hPa
Rain since
9am
mm
Dir  Spd
km/h
Gust
km/h
Spd
kts
Gust
kts
21/11:30pm 31.3 31.9 25.4 71 4.2 SSW 32 35 17 19 1009.8 - 0.0
21/11:00pm 31.0 32.0 26.3 76 3.4 SW 33 41 18 22 1009.9 - 0.0
21/10:30pm 30.5 31.6 26.4 79 2.9 SW 33 39 18 21 1009.9 - 0.0
21/10:00pm 30.4 31.7 25.9 77 3.2 SW 30 37 16 20 1010.0 - 0.0
21/09:30pm 30.2 31.7 25.0 73 3.7 WSW 26 32 14 17 1010.0 - 0.0
21/09:00pm 30.0 31.2 25.1 75 3.4 WSW 28 35 15 19 1009.8 1009.8 0.0
21/08:30pm 30.0 31.1 24.9 74 3.6 WSW 28 33 15 18 1009.7 - 0.0
21/08:00pm 30.0 30.9 24.6 73 3.8 W 28 37 15 20 1009.4 - 0.0
21/07:30pm 30.0 31.1 24.9 74 3.6 W 28 33 15 18 1009.2 - 0.0
21/07:00pm 30.1 30.9 24.5 72 3.9 W 28 35 15 19 1008.8 - 0.0
21/06:30pm 30.8 31.3 25.2 72 4.0 WSW 32 37 17 20 1008.5 - 0.0
21/06:00pm 31.6 32.1 25.2 69 4.5 WSW 32 39 17 21 1008.1 1008.1 0.0
21/05:30pm 32.1 32.4 24.9 65 5.1 WSW 32 41 17 22 1007.8 - 0.0
21/05:00pm 33.0 33.6 25.3 64 5.5 WSW 32 41 17 22 1007.7 - 0.0
21/04:30pm 33.4 33.7 24.3 59 6.4 W 30 35 16 19 1007.7 - 0.0
21/04:00pm 34.5 35.5 24.7 56 6.9 WSW 28 33 15 18 1007.9 - 0.0
21/03:30pm 35.2 36.6 24.2 53 7.7 WSW 24 28 13 15 1008.0 - 0.0
21/03:00pm 36.1 37.4 22.3 45 9.5 SW 19 24 10 13 1008.1 1008.1 0.0
21/02:30pm 35.3 36.4 23.0 49 8.5 SW 22 26 12 14 1008.2 - 0.0
21/02:00pm 34.5 37.2 25.0 57 6.7 SSW 20 26 11 14 1008.4 - 0.0
21/01:30pm 34.1 37.4 26.0 62 5.8 SSW 20 24 11 13 1008.8 - 0.0
21/01:00pm 33.7 37.5 25.9 63 5.6 SSW 17 20 9 11 1009.1 - 0.0
21/12:30pm 33.4 37.3 26.9 69 4.7 SSW 20 26 11 14 1009.6 - 0.0
21/12:00pm 33.0 36.0 25.3 64 5.5 SSW 19 24 10 13 1009.9 1009.9 0.0
21/11:30am 33.0 36.4 25.3 64 5.5 SSW 17 19 9 10 1010.1 - 0.0
21/11:00am 32.5 35.5 25.3 66 5.1 SSW 19 22 10 12 1010.4 - 0.0
21/10:30am 32.7 36.5 24.7 62 5.6 S 13 17 7 9 1010.5 - 0.0
21/10:00am 32.4 36.0 25.0 65 5.2 S 15 17 8 9 1010.7 - 0.0
21/09:30am 32.1 34.5 24.2 63 5.5 SSW 19 20 10 11 1011.0 - 0.0
21/09:00am 32.1 34.5 24.2 63 5.5 S 19 20 10 11 1010.9 1010.9 0.0
21/08:30am 31.6 34.3 24.2 65 5.2 S 17 19 9 10 1010.6 - 0.0
21/08:00am 30.9 33.2 24.5 68 4.5 S 20 24 11 13 1010.5 - 0.0
21/07:30am 30.3 32.7 24.2 70 4.2 SSW 19 24 10 13 1010.3 - 0.0
21/07:00am 29.6 32.8 24.9 76 3.3 SSW 17 20 9 11 1009.8 - 0.0
21/06:30am 28.0 32.5 25.8 88 1.6 SW 13 17 7 9 1009.6 - 0.0
21/06:00am 27.6 32.3 25.6 89 1.4 WSW 11 13 6 7 1009.4 1009.4 0.0
21/05:30am 27.8 32.7 25.8 89 1.4 WSW 11 13 6 7 1009.2 - 0.0
21/05:00am 27.7 32.1 25.7 89 1.4 WSW 13 13 7 7 1009.2 - 0.0
21/04:30am 27.7 32.0 25.5 88 1.5 W 13 15 7 8 1009.0 - 0.0
21/04:00am 27.7 32.0 25.5 88 1.5 WSW 13 17 7 9 1009.1 - 0.0
21/03:30am 27.6 32.1 25.2 87 1.7 WSW 11 15 6 8 1009.0 - 0.0
21/03:00am 27.8 32.0 25.4 87 1.7 WSW 13 17 7 9 1008.9 1008.9 0.0
21/02:30am 27.8 31.3 25.4 87 1.7 WSW 17 24 9 13 1009.2 - 0.0
21/02:00am 27.1 30.8 25.1 89 1.4 W 15 17 8 9 1009.1 - 0.0
21/01:30am 27.0 31.2 24.8 88 1.5 W 11 13 6 7 1009.0 - 0.0
21/01:00am 27.5 31.9 25.1 87 1.7 W 11 13 6 7 1009.2 - 0.0
21/12:30am 27.7 31.7 25.1 86 1.8 W 13 15 7 8 1009.5 - 0.0
21/12:00am 28.0 32.1 25.2 85 2.0 WSW 13 15 7 8 1009.8 1009.8 0.0
 
Date/Time
WST
Temp
°C
App
Temp
°C
Dew
Point
°C
Rel
Hum
%
Delta-T
°C
Wind Press
QNH
hPa
Press
MSL
hPa
Rain since
9am
mm
Dir  Spd
km/h
Gust
km/h
Spd
kts
Gust
kts
20/11:30pm 28.4 31.8 25.2 83 2.2 WSW 17 20 9 11 1009.9 - 0.0
20/11:00pm 28.4 31.4 25.2 83 2.2 WSW 19 24 10 13 1009.9 - 0.0
20/10:30pm 28.6 30.9 25.6 84 2.1 WSW 24 32 13 17 1009.9 - 0.0
20/10:00pm 28.7 30.7 25.7 84 2.1 WSW 26 32 14 17 1010.0 - 0.0
20/09:30pm 28.9 31.0 25.3 81 2.5 WSW 24 32 13 17 1009.9 - 0.0
20/09:00pm 29.1 31.5 24.6 76 3.1 WSW 20 26 11 14 1009.8 1009.8 0.0
20/08:30pm 29.1 31.6 24.4 76 3.3 WSW 19 22 10 12 1009.5 - 0.0
20/08:00pm 29.1 31.5 24.2 75 3.4 W 19 22 10 12 1009.2 - 0.0
20/07:30pm 29.1 31.2 23.8 73 3.7 W 19 22 10 12 1008.8 - 0.0
20/07:00pm 29.6 31.8 24.0 72 3.9 W 19 24 10 13 1008.4 - 0.0
20/06:30pm 30.8 32.8 24.0 67 4.7 WNW 20 26 11 14 1008.0 - 0.0
20/06:00pm 31.8 33.1 23.3 60 5.9 WNW 22 28 12 15 1007.9 1007.9 0.0
20/05:30pm 32.8 34.1 22.6 55 7.0 WNW 20 28 11 15 1007.6 - 0.0
20/05:00pm 33.5 34.9 22.9 53 7.3 WNW 20 28 11 15 1007.3 - 0.0
20/04:30pm 33.5 35.1 23.8 57 6.8 WSW 22 30 12 16 1007.2 - 0.0
20/04:00pm 33.6 36.1 24.5 59 6.4 WSW 19 24 10 13 1007.3 - 0.0
20/03:30pm 33.3 36.5 25.6 64 5.5 SSW 19 22 10 12 1007.4 - 0.0
20/03:00pm 33.2 36.7 25.5 64 5.5 SSW 17 20 9 11 1007.5 1007.5 0.0
20/02:30pm 33.7 37.4 25.1 60 6.1 S 15 17 8 9 1007.6 - 0.0
20/02:00pm 33.6 37.0 23.3 55 7.1 S 11 13 6 7 1007.7 - 0.0
20/01:30pm 33.0 36.2 22.4 53 7.3 SSE 9 13 5 7 1007.9 - 0.0
20/01:00pm 32.5 35.6 22.9 57 6.6 SE 11 13 6 7 1008.3 - 0.0
20/12:30pm 32.8 36.1 23.2 57 6.6 SE 11 13 6 7 1008.7 - 0.0
20/12:00pm 32.7 36.0 23.9 60 6.1 SSE 13 17 7 9 1008.9 1008.9 0.0
20/11:30am 31.9 35.7 24.0 63 5.5 S 11 15 6 8 1009.2 - 0.0
20/11:00am 31.8 35.0 23.1 60 6.0 S 11 15 6 8 1009.5 - 0.0

Other Formats:

Comma delimited format used in spreadsheet applications
http://www.bom.gov.au/fwo/IDW60801/IDW60801.95304.axf

JavaScript Object Notation format (JSON) in row-major order
http://www.bom.gov.au/fwo/IDW60801/IDW60801.95304.json